Time;durP1;ratioP1;P1;durP2;ratioP2;P2;SDS_P1;SDS_P2;PMS_P1;PMS_P2;Temp;Humidity;BMP_temperature;BMP_pressure;BME280_temperature;BME280_humidity;BME280_pressure;Samples;Min_cycle;Max_cycle;Signal;HPM_P1;HPM_P2
2022/06/15 00:00:40;;;;;;;8.35;5.57;;;22.40;53.90;;;;;;5077035;28;20184;-83
2022/06/15 00:03:06;;;;;;;6.05;5.43;;;22.30;54.40;;;;;;5076744;28;20436;-83
2022/06/15 00:05:32;;;;;;;5.50;5.10;;;22.20;55.30;;;;;;5064172;28;20262;-83
2022/06/15 00:07:58;;;;;;;7.15;6.07;;;22.10;56.00;;;;;;5060831;28;20187;-83
2022/06/15 00:10:24;;;;;;;6.05;5.55;;;22.10;55.00;;;;;;5077432;28;20260;-83
2022/06/15 00:12:50;;;;;;;6.15;5.25;;;21.90;57.20;;;;;;5076712;28;20204;-83
2022/06/15 00:15:16;;;;;;;5.18;4.78;;;21.80;57.40;;;;;;5075567;28;20680;-83
2022/06/15 00:17:41;;;;;;;5.25;4.85;;;22.00;57.60;;;;;;5071524;28;20191;-83
2022/06/15 00:20:08;;;;;;;6.20;5.55;;;22.00;57.00;;;;;;5079026;28;20188;-83
2022/06/15 00:22:34;;;;;;;5.45;5.00;;;21.90;57.40;;;;;;5079935;28;20179;-83
2022/06/15 00:24:59;;;;;;;6.70;5.57;;;22.00;57.00;;;;;;5075880;28;20195;-83
2022/06/15 00:27:25;;;;;;;5.40;4.82;;;22.00;56.50;;;;;;5075000;28;20184;-83
2022/06/15 00:29:51;;;;;;;6.07;5.45;;;22.00;56.30;;;;;;5075038;28;20186;-83
2022/06/15 00:32:16;;;;;;;7.85;5.97;;;22.00;57.20;;;;;;5076929;28;20235;-83
2022/06/15 00:34:42;;;;;;;5.78;5.28;;;21.80;57.80;;;;;;5073278;28;20261;-83
2022/06/15 00:37:08;;;;;;;5.88;5.38;;;21.80;57.80;;;;;;5074988;28;20188;-83
2022/06/15 00:39:34;;;;;;;6.70;6.10;;;21.90;57.30;;;;;;5076239;28;20180;-84
2022/06/15 00:42:01;;;;;;;6.55;5.13;;;21.80;57.20;;;;;;5075191;28;20183;-83
2022/06/15 00:44:32;;;;;;;5.70;5.22;;;21.50;58.00;;;;;;5074524;28;20230;-83
2022/06/15 00:47:22;;;;;;;6.03;5.53;;;21.60;57.60;;;;;;5076385;28;20594;-84
2022/06/15 00:50:00;;;;;;;5.50;5.10;;;21.60;57.80;;;;;;5072283;28;20180;-83
2022/06/15 00:52:39;;;;;;;7.32;5.35;;;21.50;58.20;;;;;;5067146;28;20213;-83
2022/06/15 00:55:14;;;;;;;5.97;5.45;;;21.60;58.20;;;;;;5072995;28;20185;-83
2022/06/15 00:57:41;;;;;;;6.00;5.40;;;21.60;58.10;;;;;;5075374;28;20271;-84
2022/06/15 01:00:08;;;;;;;6.20;5.68;;;21.60;57.50;;;;;;5065149;28;20720;-84
2022/06/15 01:02:36;;;;;;;5.57;5.07;;;21.60;57.60;;;;;;5070425;28;20226;-83
2022/06/15 01:05:13;;;;;;;5.63;5.13;;;21.50;57.90;;;;;;5078077;28;20182;-83
2022/06/15 01:07:44;;;;;;;5.68;5.18;;;21.20;59.00;;;;;;5074915;28;20186;-83
2022/06/15 01:10:44;;;;;;;5.70;5.20;;;21.10;59.40;;;;;;5075159;28;20184;-83
2022/06/15 01:13:32;;;;;;;6.47;5.70;;;21.30;58.80;;;;;;5072122;28;20231;-83
2022/06/15 01:16:03;;;;;;;5.85;5.22;;;21.30;58.30;;;;;;5075007;28;20195;-83
2022/06/15 01:19:10;;;;;;;7.30;5.40;;;21.20;57.80;;;;;;5076207;28;20288;-83
2022/06/15 01:22:10;;;;;;;7.63;5.57;;;20.90;57.70;;;;;;5055686;28;20203;-83
2022/06/15 01:25:16;;;;;;;6.00;5.40;;;20.80;58.60;;;;;;5065077;28;20219;-83
2022/06/15 01:28:02;;;;;;;5.90;5.40;;;20.20;60.50;;;;;;5061955;28;20245;-83
2022/06/15 01:30:51;;;;;;;6.07;5.53;;;19.80;61.50;;;;;;5058068;28;20215;-82
2022/06/15 01:33:49;;;;;;;6.82;5.30;;;19.60;62.30;;;;;;5073976;28;20203;-83
2022/06/15 01:36:34;;;;;;;5.70;5.20;;;19.70;61.80;;;;;;5069934;28;20190;-83
2022/06/15 01:39:04;;;;;;;6.82;5.85;;;19.80;61.30;;;;;;5071029;28;20184;-83
2022/06/15 01:41:41;;;;;;;6.03;5.53;;;19.80;61.10;;;;;;5074249;28;20215;-83
2022/06/15 01:44:18;;;;;;;7.75;5.45;;;20.20;60.10;;;;;;5076603;28;20230;-83
2022/06/15 01:46:46;;;;;;;6.78;4.95;;;20.40;59.00;;;;;;5065376;28;20184;-83
2022/06/15 01:49:36;;;;;;;5.50;5.10;;;20.60;58.80;;;;;;5076988;28;20177;-83
2022/06/15 01:52:04;;;;;;;5.60;5.10;;;20.80;58.00;;;;;;5074182;28;20198;-83
2022/06/15 01:54:38;;;;;;;6.15;5.60;;;20.90;57.90;;;;;;5074367;28;20206;-83
2022/06/15 01:57:05;;;;;;;5.65;5.13;;;21.00;58.10;;;;;;5073108;28;20187;-83
2022/06/15 01:59:45;;;;;;;6.10;5.53;;;21.00;57.70;;;;;;5076602;28;20183;-83
2022/06/15 02:02:33;;;;;;;5.78;5.15;;;21.20;57.40;;;;;;5069640;28;20194;-83
2022/06/15 02:05:18;;;;;;;5.65;5.22;;;21.20;57.10;;;;;;5070096;28;20190;-83
2022/06/15 02:08:07;;;;;;;5.35;4.93;;;21.20;57.60;;;;;;5078669;28;20544;-83
2022/06/15 02:10:54;;;;;;;6.05;5.55;;;21.10;58.20;;;;;;5071045;28;20202;-83
2022/06/15 02:13:34;;;;;;;5.75;5.30;;;20.80;59.10;;;;;;5068983;28;20207;-82
2022/06/15 02:16:06;;;;;;;5.90;5.40;;;20.60;59.90;;;;;;5075783;28;20232;-82
2022/06/15 02:18:35;;;;;;;5.50;5.03;;;20.60;60.60;;;;;;5074594;28;20239;-82
2022/06/15 02:21:06;;;;;;;5.78;5.28;;;20.70;60.20;;;;;;5071002;28;20195;-82
2022/06/15 02:23:35;;;;;;;5.88;5.28;;;20.60;60.40;;;;;;5082471;28;20202;-83
2022/06/15 02:26:02;;;;;;;5.78;5.38;;;20.60;60.00;;;;;;5075690;28;20181;-82
2022/06/15 02:28:33;;;;;;;5.88;5.35;;;20.70;59.30;;;;;;5080968;28;20302;-82
2022/06/15 02:30:59;;;;;;;6.72;5.38;;;20.60;59.20;;;;;;5078730;28;20210;-82
2022/06/15 02:33:33;;;;;;;6.32;5.65;;;20.70;59.10;;;;;;5076565;28;20571;-82
2022/06/15 02:36:01;;;;;;;7.95;5.30;;;20.70;59.00;;;;;;5073599;28;20187;-83
2022/06/15 02:38:28;;;;;;;6.50;5.47;;;20.70;58.90;;;;;;5058688;28;20259;-83
2022/06/15 02:40:54;;;;;;;6.75;5.40;;;20.60;59.00;;;;;;5080771;28;20185;-83
2022/06/15 02:43:25;;;;;;;5.90;5.40;;;20.40;60.00;;;;;;5081464;28;20255;-82
2022/06/15 02:45:52;;;;;;;6.13;5.50;;;20.40;60.00;;;;;;5060508;28;20242;-83
2022/06/15 02:48:18;;;;;;;6.38;5.00;;;20.20;61.00;;;;;;5079039;28;20187;-83
2022/06/15 02:51:13;;;;;;;5.93;5.28;;;19.90;63.00;;;;;;5078527;28;20220;-83
2022/06/15 02:53:41;;;;;;;6.07;5.57;;;19.70;64.40;;;;;;5050611;28;20567;-83
2022/06/15 02:56:08;;;;;;;6.00;5.50;;;19.80;63.40;;;;;;5077195;28;20194;-83
2022/06/15 02:58:39;;;;;;;5.95;5.45;;;19.60;63.90;;;;;;5068139;28;20216;-83
2022/06/15 03:01:05;;;;;;;7.68;5.28;;;19.60;64.60;;;;;;5074175;28;20175;-83
2022/06/15 03:03:33;;;;;;;6.00;5.43;;;19.50;65.50;;;;;;5076551;28;20701;-83
2022/06/15 03:05:58;;;;;;;6.10;5.50;;;19.50;65.30;;;;;;5076995;28;20192;-83
2022/06/15 03:08:24;;;;;;;6.07;5.63;;;19.60;64.30;;;;;;5076881;28;20184;-83
2022/06/15 03:10:52;;;;;;;5.47;5.07;;;19.70;64.00;;;;;;5076442;28;20200;-83
2022/06/15 03:13:19;;;;;;;5.60;4.97;;;19.70;63.60;;;;;;5059716;28;20849;-83
2022/06/15 03:15:45;;;;;;;7.15;5.88;;;19.70;64.00;;;;;;5075884;28;20180;-83
2022/06/15 03:18:11;;;;;;;5.70;5.20;;;19.80;63.80;;;;;;5078134;28;20207;-83
2022/06/15 03:20:36;;;;;;;6.50;5.28;;;19.70;63.80;;;;;;5077034;28;20250;-82
2022/06/15 03:23:06;;;;;;;6.45;5.50;;;19.70;63.90;;;;;;5077463;28;20683;-83
2022/06/15 03:25:33;;;;;;;6.55;6.03;;;19.50;64.60;;;;;;5084336;28;20180;-83
2022/06/15 03:27:58;;;;;;;5.68;5.18;;;19.40;65.20;;;;;;5074229;28;20195;-83
2022/06/15 03:30:24;;;;;;;6.13;5.53;;;19.40;65.40;;;;;;5076821;28;20179;-83
2022/06/15 03:32:50;;;;;;;7.85;5.72;;;19.50;65.00;;;;;;5074981;28;20804;-83
2022/06/15 03:35:15;;;;;;;5.95;5.47;;;19.40;64.40;;;;;;5075891;28;20195;-83
2022/06/15 03:37:41;;;;;;;6.05;5.55;;;19.30;65.00;;;;;;5075074;28;20233;-83
2022/06/15 03:40:09;;;;;;;9.25;5.85;;;19.30;65.40;;;;;;5078968;28;20596;-83
2022/06/15 03:42:36;;;;;;;6.78;5.30;;;19.30;65.00;;;;;;5070317;28;20239;-83
2022/06/15 03:45:02;;;;;;;5.78;5.18;;;19.40;65.00;;;;;;5076668;28;20205;-83
2022/06/15 03:47:28;;;;;;;6.45;5.82;;;19.20;65.50;;;;;;5059423;28;20275;-83
2022/06/15 03:49:54;;;;;;;5.82;5.22;;;19.20;65.40;;;;;;5076575;28;20214;-83
2022/06/15 03:52:25;;;;;;;5.88;5.38;;;19.20;65.30;;;;;;5075999;28;20204;-83
2022/06/15 03:54:51;;;;;;;5.57;5.18;;;19.30;65.20;;;;;;5079988;28;20179;-83
2022/06/15 03:57:19;;;;;;;6.57;5.25;;;19.40;65.00;;;;;;5078439;28;20595;-83
2022/06/15 03:59:46;;;;;;;6.55;5.22;;;19.30;65.20;;;;;;5070512;28;20180;-83
2022/06/15 04:02:12;;;;;;;6.07;5.53;;;19.30;65.30;;;;;;5077924;28;20622;-83
2022/06/15 04:04:38;;;;;;;5.80;5.22;;;19.40;64.90;;;;;;5068952;28;20274;-83
2022/06/15 04:08:34;;;;;;;6.22;5.72;;;19.40;64.70;;;;;;5064700;28;20191;-83
2022/06/15 04:09:51;;;;;;;5.72;5.00;;;19.50;64.40;;;;;;5077085;28;20192;-83
2022/06/15 04:12:16;;;;;;;11.98;6.25;;;19.60;64.00;;;;;;5079315;28;20207;-83
2022/06/15 04:14:42;;;;;;;6.25;5.70;;;19.40;64.50;;;;;;5081633;28;20290;-83
2022/06/15 04:17:09;;;;;;;5.25;4.75;;;19.50;64.60;;;;;;5077330;28;20209;-83
2022/06/15 04:19:35;;;;;;;7.72;5.40;;;19.50;64.70;;;;;;5079608;28;20177;-83
2022/06/15 04:22:00;;;;;;;8.68;5.50;;;19.50;64.40;;;;;;5083368;28;20202;-83
2022/06/15 04:24:29;;;;;;;6.88;5.50;;;19.50;64.50;;;;;;5080703;28;20223;-83
2022/06/15 04:26:55;;;;;;;5.18;4.78;;;19.50;65.10;;;;;;5069537;28;20206;-83
2022/06/15 04:29:21;;;;;;;6.72;5.38;;;19.40;65.80;;;;;;5079002;28;20187;-83
2022/06/15 04:31:48;;;;;;;6.72;5.32;;;19.40;65.80;;;;;;5075276;28;20210;-83
2022/06/15 04:34:14;;;;;;;5.90;5.30;;;19.50;65.40;;;;;;5074112;28;20264;-83
2022/06/15 04:36:42;;;;;;;5.95;5.35;;;19.50;65.10;;;;;;5059117;28;20180;-83
2022/06/15 04:39:10;;;;;;;5.78;5.25;;;19.50;65.50;;;;;;5083564;28;20278;-83
2022/06/15 04:41:37;;;;;;;5.75;5.22;;;19.60;65.20;;;;;;5079717;28;20494;-83
2022/06/15 04:44:07;;;;;;;5.65;5.20;;;19.70;64.90;;;;;;5055518;28;20251;-83
2022/06/15 04:46:33;;;;;;;5.80;5.30;;;19.70;65.00;;;;;;5080984;28;20325;-83
2022/06/15 04:49:00;;;;;;;6.75;5.82;;;19.80;65.20;;;;;;5078223;28;20183;-83
2022/06/15 04:51:29;;;;;;;5.97;5.38;;;19.50;67.00;;;;;;5078488;28;20214;-83
2022/06/15 04:53:56;;;;;;;13.10;6.13;;;19.40;68.10;;;;;;5063470;28;20748;-83
2022/06/15 04:56:24;;;;;;;6.28;5.30;;;19.40;68.90;;;;;;5076478;28;20184;-83
2022/06/15 04:58:50;;;;;;;6.57;5.95;;;19.40;68.80;;;;;;5076540;28;20176;-84
2022/06/15 05:01:16;;;;;;;6.18;5.60;;;19.50;69.00;;;;;;5075006;28;20195;-83
2022/06/15 05:03:41;;;;;;;5.93;5.30;;;19.40;69.40;;;;;;5074447;28;20763;-83
2022/06/15 05:06:28;;;;;;;5.65;5.05;;;19.40;69.20;;;;;;5073378;28;20189;-83
2022/06/15 05:08:53;;;;;;;6.07;5.57;;;19.50;69.70;;;;;;5078003;28;20182;-84
2022/06/15 05:11:19;;;;;;;8.85;5.82;;;19.60;69.50;;;;;;5076308;28;20201;-83
2022/06/15 05:13:45;;;;;;;6.47;5.88;;;19.80;68.00;;;;;;5074206;28;20207;-83
2022/06/15 05:16:11;;;;;;;7.50;5.80;;;19.90;66.90;;;;;;5080962;28;20183;-84
2022/06/15 05:18:36;;;;;;;7.53;6.75;;;19.90;66.80;;;;;;5077367;28;20219;-83
2022/06/15 05:21:02;;;;;;;6.45;5.85;;;20.00;66.20;;;;;;5081283;28;20212;-83
2022/06/15 05:23:28;;;;;;;7.35;6.47;;;20.00;65.30;;;;;;5057513;28;20254;-83
2022/06/15 05:25:53;;;;;;;7.80;6.25;;;20.10;64.80;;;;;;5056832;28;20222;-84
2022/06/15 05:28:19;;;;;;;7.50;6.80;;;20.00;64.80;;;;;;5074253;28;20193;-84
2022/06/15 05:30:44;;;;;;;10.27;6.45;;;20.10;65.40;;;;;;5061463;28;20206;-83
2022/06/15 05:33:10;;;;;;;7.93;6.78;;;20.20;64.00;;;;;;5055968;28;20217;-83
2022/06/15 05:35:36;;;;;;;7.13;6.45;;;20.20;64.50;;;;;;5071865;28;20197;-83
2022/06/15 05:38:02;;;;;;;6.93;6.20;;;20.20;64.20;;;;;;5075157;28;20205;-83
2022/06/15 05:40:28;;;;;;;6.82;6.28;;;20.40;63.80;;;;;;5070818;28;20197;-84
2022/06/15 05:42:53;;;;;;;7.32;6.53;;;20.40;63.00;;;;;;5054454;28;20287;-83
2022/06/15 05:45:19;;;;;;;6.60;5.95;;;20.50;63.40;;;;;;5068150;28;20186;-83
2022/06/15 05:47:45;;;;;;;7.05;6.25;;;20.40;63.10;;;;;;5069559;28;20773;-84
2022/06/15 05:50:12;;;;;;;6.70;5.72;;;20.40;62.80;;;;;;5072729;28;20228;-83
2022/06/15 05:52:38;;;;;;;6.38;5.78;;;20.40;62.80;;;;;;5084014;28;20216;-83
2022/06/15 05:55:04;;;;;;;6.22;5.63;;;20.50;62.30;;;;;;5080475;28;20661;-83
2022/06/15 05:57:30;;;;;;;7.43;5.50;;;20.60;62.80;;;;;;5077855;28;20208;-84
2022/06/15 05:59:57;;;;;;;5.38;4.97;;;20.60;62.70;;;;;;5089799;28;20190;-84
2022/06/15 06:02:25;;;;;;;7.18;5.68;;;20.50;63.40;;;;;;5073522;28;20201;-83
2022/06/15 06:04:51;;;;;;;7.22;5.95;;;20.60;63.20;;;;;;5091504;28;20221;-83
2022/06/15 06:07:21;;;;;;;6.10;5.60;;;20.70;62.80;;;;;;5089832;28;20197;-83
2022/06/15 06:09:47;;;;;;;6.28;5.70;;;20.70;63.60;;;;;;5091260;28;20287;-84
2022/06/15 06:12:13;;;;;;;6.70;6.00;;;20.70;64.50;;;;;;5084442;28;20213;-83
2022/06/15 06:14:39;;;;;;;6.35;5.70;;;20.60;64.40;;;;;;5087087;28;20257;-83
2022/06/15 06:17:06;;;;;;;9.15;5.50;;;20.60;64.90;;;;;;5092729;28;20213;-84
2022/06/15 06:19:31;;;;;;;8.75;5.32;;;20.70;64.50;;;;;;5092356;28;20586;-85
2022/06/15 06:21:57;;;;;;;6.55;5.50;;;20.70;64.30;;;;;;5089468;28;20226;-84
2022/06/15 06:24:23;;;;;;;8.35;5.57;;;20.80;63.40;;;;;;5091116;28;20252;-84
2022/06/15 06:26:48;;;;;;;7.00;5.60;;;20.90;64.00;;;;;;5089782;28;20622;-84
2022/06/15 06:29:15;;;;;;;6.15;5.55;;;21.00;62.40;;;;;;5091133;28;20277;-84
2022/06/15 06:31:42;;;;;;;5.97;5.25;;;21.10;63.00;;;;;;5087982;28;20206;-83
2022/06/15 06:34:10;;;;;;;6.38;5.82;;;21.20;61.40;;;;;;5086972;28;20878;-84
2022/06/15 06:36:44;;;;;;;7.97;5.93;;;21.10;61.20;;;;;;5071083;28;20881;-83
2022/06/15 06:39:14;;;;;;;6.97;5.88;;;21.10;60.70;;;;;;5088367;28;20204;-84
2022/06/15 06:41:41;;;;;;;5.95;5.32;;;21.00;60.60;;;;;;5090132;28;20186;-83
2022/06/15 06:44:07;;;;;;;6.20;5.60;;;21.30;58.80;;;;;;5090325;28;20236;-83
2022/06/15 06:46:34;;;;;;;6.22;5.35;;;21.40;58.60;;;;;;5089874;28;20679;-83
2022/06/15 06:49:00;;;;;;;6.57;5.72;;;21.60;58.60;;;;;;5092170;28;20208;-84
2022/06/15 06:51:27;;;;;;;8.23;6.20;;;21.70;58.70;;;;;;5092086;28;20225;-83
2022/06/15 06:53:53;;;;;;;6.93;5.50;;;21.70;58.80;;;;;;5091875;28;20601;-83
2022/06/15 06:56:18;;;;;;;8.60;4.82;;;21.60;59.00;;;;;;5090071;28;20187;-84
2022/06/15 06:58:44;;;;;;;6.38;5.65;;;21.70;58.70;;;;;;5092040;28;20213;-83
2022/06/15 07:01:10;;;;;;;8.30;5.05;;;21.80;58.00;;;;;;5092585;28;20210;-84
2022/06/15 07:03:36;;;;;;;5.90;5.40;;;21.90;58.30;;;;;;5091301;28;20246;-83
2022/06/15 07:06:07;;;;;;;7.55;5.80;;;22.00;58.10;;;;;;5090956;28;20712;-83
2022/06/15 07:08:33;;;;;;;8.98;6.32;;;22.00;57.50;;;;;;5092740;28;20175;-83
2022/06/15 07:11:00;;;;;;;6.57;5.97;;;21.90;55.80;;;;;;5096229;28;20300;-84
2022/06/15 07:13:26;;;;;;;6.25;5.50;;;21.60;57.20;;;;;;5096818;28;20221;-84
2022/06/15 07:15:52;;;;;;;6.25;5.65;;;21.60;58.40;;;;;;5097325;28;20537;-84
2022/06/15 07:18:18;;;;;;;6.45;5.65;;;21.50;58.60;;;;;;5095817;28;20198;-83
2022/06/15 07:20:44;;;;;;;8.27;5.68;;;21.50;58.50;;;;;;5094763;28;20178;-84
2022/06/15 07:23:10;;;;;;;10.40;6.43;;;21.70;58.30;;;;;;5094558;28;20265;-84
2022/06/15 07:25:36;;;;;;;6.43;5.82;;;21.70;59.00;;;;;;5098914;28;20194;-83
2022/06/15 07:28:03;;;;;;;6.38;5.22;;;21.70;58.50;;;;;;5098234;28;20205;-83
2022/06/15 07:30:29;;;;;;;6.63;6.00;;;21.80;58.60;;;;;;5095623;28;20187;-82
2022/06/15 07:32:55;;;;;;;7.20;5.90;;;22.10;57.20;;;;;;5076059;28;20217;-83
2022/06/15 07:35:25;;;;;;;7.13;5.88;;;22.30;56.80;;;;;;5093510;28;20566;-83
2022/06/15 07:37:51;;;;;;;6.63;5.95;;;22.50;56.60;;;;;;5090399;28;20600;-84
2022/06/15 07:40:20;;;;;;;8.43;5.85;;;22.50;55.60;;;;;;5089311;28;20252;-82
2022/06/15 07:42:46;;;;;;;7.68;5.47;;;22.50;57.40;;;;;;5093021;28;20683;-84
2022/06/15 07:45:13;;;;;;;6.68;5.80;;;22.60;56.60;;;;;;5074207;28;20203;-83
2022/06/15 07:50:23;;;;;;;27.80;7.80;;;23.00;54.70;;;;;;5092040;28;20730;-83
2022/06/15 07:52:51;;;;;;;10.68;5.78;;;23.20;54.70;;;;;;5088654;28;20207;-83
2022/06/15 07:55:21;;;;;;;12.20;6.68;;;23.20;55.40;;;;;;5089808;28;20699;-83
2022/06/15 07:57:47;;;;;;;8.23;5.90;;;23.30;54.80;;;;;;5093394;28;20662;-82
2022/06/15 08:00:14;;;;;;;8.35;6.22;;;23.40;54.00;;;;;;5093230;28;20202;-84
2022/06/15 08:02:40;;;;;;;7.07;6.38;;;23.40;54.70;;;;;;5093984;28;20638;-82
2022/06/15 08:05:07;;;;;;;6.68;5.50;;;23.50;54.60;;;;;;5075214;28;20213;-83
2022/06/15 08:07:35;;;;;;;6.30;5.68;;;23.50;54.60;;;;;;5094502;28;20899;-83
2022/06/15 08:10:01;;;;;;;8.77;5.90;;;23.60;52.80;;;;;;5092522;28;20195;-84
2022/06/15 08:12:27;;;;;;;10.25;6.30;;;23.70;52.70;;;;;;5095988;28;20267;-83
2022/06/15 08:14:56;;;;;;;7.68;6.22;;;23.70;51.90;;;;;;5093988;28;20187;-83
2022/06/15 08:17:28;;;;;;;15.20;6.38;;;23.60;52.60;;;;;;5095897;28;20180;-83
2022/06/15 08:20:02;;;;;;;10.35;5.90;;;23.60;53.40;;;;;;5094425;28;20249;-83
2022/06/15 08:22:28;;;;;;;6.47;5.55;;;24.00;53.30;;;;;;5095757;28;20511;-83
2022/06/15 08:24:54;;;;;;;7.07;5.90;;;24.10;53.20;;;;;;5094132;28;20195;-83
2022/06/15 08:27:22;;;;;;;6.68;5.97;;;24.10;52.40;;;;;;5097012;28;20255;-83
2022/06/15 08:29:49;;;;;;;5.82;5.32;;;24.40;51.50;;;;;;5094527;28;20256;-86
2022/06/15 08:32:16;;;;;;;6.80;5.65;;;24.60;52.30;;;;;;5093038;28;20205;-83
2022/06/15 08:34:42;;;;;;;10.85;6.43;;;24.60;52.10;;;;;;5092815;28;20199;-84
2022/06/15 08:37:13;;;;;;;9.52;5.70;;;24.60;50.40;;;;;;5090550;28;20780;-85
2022/06/15 08:39:40;;;;;;;6.47;5.88;;;24.80;49.40;;;;;;5092670;28;20197;-84
2022/06/15 08:42:14;;;;;;;11.93;6.40;;;25.00;49.80;;;;;;5092211;28;20186;-84
2022/06/15 08:45:26;;;;;;;5.95;5.22;;;25.20;49.00;;;;;;5091062;28;20218;-85
2022/06/15 08:48:10;;;;;;;5.82;5.40;;;25.40;47.90;;;;;;5003794;28;20186;-84
2022/06/15 08:51:03;;;;;;;5.82;5.25;;;25.40;44.20;;;;;;5003966;28;20190;-83
2022/06/15 08:53:44;;;;;;;6.18;5.60;;;25.50;46.50;;;;;;5076186;28;20237;-84
2022/06/15 08:56:25;;;;;;;9.65;6.22;;;25.80;45.10;;;;;;5090553;28;20242;-83
2022/06/15 08:58:51;;;;;;;7.28;5.70;;;25.90;44.10;;;;;;5091076;28;20197;-84
2022/06/15 09:01:50;;;;;;;9.88;6.00;;;25.90;44.00;;;;;;5088714;28;20190;-84
2022/06/15 09:04:30;;;;;;;5.35;4.85;;;26.10;44.70;;;;;;5090123;28;20304;-84
2022/06/15 09:06:59;;;;;;;6.15;5.55;;;26.00;42.30;;;;;;5089555;28;20550;-84
2022/06/15 09:09:38;;;;;;;6.55;5.22;;;26.10;41.70;;;;;;5091710;28;20206;-83
2022/06/15 09:15:48;;;;;;;5.90;5.50;;;26.00;43.20;;;;;;5091484;28;20201;-84
2022/06/15 09:18:26;;;;;;;8.63;5.28;;;26.20;42.40;;;;;;5062845;28;20255;-84
2022/06/15 09:20:57;;;;;;;5.97;5.45;;;26.40;41.60;;;;;;5090067;28;20237;-84
2022/06/15 09:23:43;;;;;;;6.63;5.95;;;26.70;41.30;;;;;;5092689;28;20264;-83
2022/06/15 09:26:23;;;;;;;6.72;5.22;;;26.80;41.90;;;;;;5095003;28;20191;-88
2022/06/15 09:28:59;;;;;;;6.90;5.47;;;26.80;43.50;;;;;;5091426;28;20186;-83
2022/06/15 09:31:32;;;;;;;6.82;5.85;;;27.10;42.00;;;;;;5092587;28;20225;-82
2022/06/15 09:34:04;;;;;;;5.75;5.25;;;27.30;41.90;;;;;;5069350;28;20569;-83
2022/06/15 09:36:52;;;;;;;7.35;6.13;;;27.40;42.00;;;;;;5086879;28;20175;-83
2022/06/15 09:39:18;;;;;;;6.25;5.60;;;27.40;41.70;;;;;;5085224;28;20464;-83
2022/06/15 09:41:49;;;;;;;6.88;6.07;;;27.10;41.50;;;;;;5085995;28;20191;-84
2022/06/15 09:44:36;;;;;;;6.05;5.53;;;27.40;39.80;;;;;;5090683;28;20218;-84
2022/06/15 09:47:43;;;;;;;10.85;6.40;;;27.60;39.70;;;;;;5091673;28;20566;-83
2022/06/15 09:50:29;;;;;;;6.47;5.88;;;27.90;39.70;;;;;;5003429;28;20273;-84
2022/06/15 09:53:18;;;;;;;6.22;5.63;;;28.10;39.70;;;;;;4985373;28;20209;-83
2022/06/15 09:55:56;;;;;;;9.63;8.55;;;28.40;38.40;;;;;;5069938;28;20252;-84
2022/06/15 09:58:27;;;;;;;6.72;6.18;;;28.50;37.90;;;;;;5075096;28;20182;-83
2022/06/15 10:00:53;;;;;;;7.05;6.32;;;28.60;37.40;;;;;;5093765;28;20179;-84
2022/06/15 10:03:19;;;;;;;6.43;5.68;;;28.80;37.30;;;;;;5089870;28;20210;-84
2022/06/15 10:05:49;;;;;;;6.65;5.80;;;28.80;37.30;;;;;;5089921;28;20227;-84
2022/06/15 10:08:16;;;;;;;6.90;6.20;;;29.00;37.50;;;;;;5091997;28;20250;-84
2022/06/15 10:10:48;;;;;;;6.32;5.50;;;29.20;36.40;;;;;;5092319;28;20205;-84
2022/06/15 10:13:17;;;;;;;7.88;5.85;;;29.50;36.40;;;;;;5080322;28;20206;-84
2022/06/15 10:15:42;;;;;;;8.48;6.15;;;29.40;36.60;;;;;;5097652;28;20183;-84
2022/06/15 10:18:34;;;;;;;6.75;6.15;;;29.40;36.60;;;;;;5091645;28;20197;-84
2022/06/15 10:21:09;;;;;;;6.85;6.03;;;29.60;36.70;;;;;;5088614;28;20701;-84
2022/06/15 10:23:49;;;;;;;6.50;5.90;;;29.70;36.00;;;;;;5091269;28;20229;-86
2022/06/15 10:26:28;;;;;;;6.63;5.93;;;29.90;36.60;;;;;;5089969;28;20202;-84
2022/06/15 10:28:55;;;;;;;6.63;6.03;;;30.00;36.60;;;;;;5090502;28;20174;-84
2022/06/15 10:31:32;;;;;;;6.72;6.13;;;30.10;35.60;;;;;;5084957;28;20210;-85
2022/06/15 10:34:18;;;;;;;7.03;6.32;;;30.00;36.20;;;;;;5086008;28;20203;-84
2022/06/15 10:36:50;;;;;;;7.03;6.47;;;29.80;37.10;;;;;;5086113;28;20179;-85
2022/06/15 10:39:23;;;;;;;6.93;6.32;;;30.20;36.70;;;;;;5086871;28;20190;-83
2022/06/15 10:41:49;;;;;;;8.82;6.55;;;30.30;35.90;;;;;;5084929;28;20194;-84
2022/06/15 10:44:15;;;;;;;6.78;6.07;;;30.40;35.60;;;;;;5089194;28;20772;-85
2022/06/15 10:47:03;;;;;;;9.50;6.45;;;30.50;35.30;;;;;;5089708;28;20259;-84
2022/06/15 10:49:34;;;;;;;6.82;6.13;;;30.70;34.70;;;;;;5087435;28;20224;-85
2022/06/15 10:52:01;;;;;;;6.78;6.05;;;30.80;34.80;;;;;;5086306;28;20861;-84
2022/06/15 11:02:06;;;;;;;11.95;6.30;;;31.00;36.20;;;;;;5087740;28;20740;-84
2022/06/15 11:03:23;;;;;;;7.03;6.32;;;31.40;34.00;;;;;;5085993;28;20219;-84
2022/06/15 11:05:52;;;;;;;7.22;6.47;;;31.30;34.70;;;;;;5091261;28;20186;-84
2022/06/15 11:08:21;;;;;;;8.60;6.43;;;31.70;33.80;;;;;;5087526;28;20201;-84
2022/06/15 11:10:50;;;;;;;7.78;6.50;;;32.20;33.10;;;;;;5088350;28;20178;-84
2022/06/15 11:13:40;;;;;;;7.10;6.38;;;32.50;32.60;;;;;;5085591;28;20689;-84
2022/06/15 11:19:14;;;;;;;6.72;6.00;;;32.60;31.90;;;;;;5089320;28;20209;-84
2022/06/15 11:21:56;;;;;;;7.15;6.55;;;32.60;30.90;;;;;;5092382;28;20270;-85
2022/06/15 11:24:22;;;;;;;6.63;6.05;;;33.00;31.30;;;;;;5094499;28;20203;-83
2022/06/15 11:26:57;;;;;;;6.25;5.75;;;33.10;31.00;;;;;;5097281;28;20225;-83
2022/06/15 11:29:41;;;;;;;8.57;5.47;;;33.10;30.60;;;;;;5089306;28;20205;-83
2022/06/15 11:32:44;;;;;;;5.90;5.28;;;33.10;30.10;;;;;;5088246;28;20210;-84
2022/06/15 11:35:12;;;;;;;10.27;6.07;;;33.00;28.80;;;;;;5090222;28;20201;-83
2022/06/15 11:38:03;;;;;;;7.63;5.65;;;32.80;29.10;;;;;;5087399;28;20240;-83
2022/06/15 11:40:35;;;;;;;5.60;5.10;;;32.30;30.50;;;;;;5089652;28;20711;-84
2022/06/15 11:43:02;;;;;;;6.10;5.50;;;32.40;29.00;;;;;;5090557;28;20198;-84
2022/06/15 11:45:39;;;;;;;6.85;5.25;;;33.00;29.10;;;;;;5090369;28;20336;-86
2022/06/15 11:48:05;;;;;;;9.25;5.70;;;33.30;28.60;;;;;;5090365;28;20187;-84
2022/06/15 11:50:33;;;;;;;8.98;4.95;;;33.50;27.70;;;;;;5090730;28;20190;-83
2022/06/15 11:53:11;;;;;;;5.97;5.30;;;33.40;26.60;;;;;;5092994;28;20202;-83
2022/06/15 11:56:12;;;;;;;5.13;4.72;;;33.40;27.40;;;;;;5091553;28;20413;-84
2022/06/15 11:59:25;;;;;;;5.65;4.97;;;33.70;27.10;;;;;;5091728;28;20229;-83
2022/06/15 12:02:08;;;;;;;6.60;5.63;;;34.10;27.60;;;;;;5080018;28;20760;-84
2022/06/15 12:04:40;;;;;;;5.93;5.43;;;34.30;27.80;;;;;;5092124;28;20289;-84
2022/06/15 12:07:25;;;;;;;5.70;5.25;;;34.30;27.30;;;;;;5091818;28;20183;-84
2022/06/15 12:09:57;;;;;;;5.20;4.78;;;34.20;26.30;;;;;;5093150;28;20607;-84
2022/06/15 12:13:01;;;;;;;5.18;4.88;;;34.20;26.20;;;;;;5093742;28;20260;-84
2022/06/15 12:15:47;;;;;;;9.48;5.13;;;34.60;25.70;;;;;;5090536;28;20251;-83
2022/06/15 12:18:23;;;;;;;5.32;4.97;;;34.90;25.00;;;;;;5090740;28;20622;-82
2022/06/15 12:20:55;;;;;;;5.30;4.82;;;35.20;23.30;;;;;;5092520;28;20761;-82
2022/06/15 12:23:42;;;;;;;5.22;4.72;;;35.30;23.10;;;;;;5092393;28;20206;-82
2022/06/15 12:26:41;;;;;;;6.65;5.13;;;35.10;23.20;;;;;;5093724;28;20171;-84
2022/06/15 12:29:12;;;;;;;5.50;4.90;;;35.30;24.20;;;;;;5095793;28;20570;-83
2022/06/15 12:31:52;;;;;;;6.03;5.60;;;35.50;24.40;;;;;;5098420;28;20199;-84
2022/06/15 12:34:48;;;;;;;6.20;5.13;;;35.40;23.80;;;;;;5098735;28;20212;-83
2022/06/15 12:37:31;;;;;;;5.75;5.15;;;35.70;23.10;;;;;;5096382;28;20174;-83
2022/06/15 12:40:12;;;;;;;5.57;5.10;;;36.00;23.60;;;;;;5098582;28;20262;-83
2022/06/15 12:42:42;;;;;;;5.75;5.35;;;36.40;22.40;;;;;;5095101;28;20182;-84
2022/06/15 12:45:25;;;;;;;5.60;5.10;;;36.40;22.30;;;;;;5090311;28;20198;-82
2022/06/15 12:47:58;;;;;;;5.95;5.35;;;36.60;21.80;;;;;;5096664;28;20186;-84
2022/06/15 12:50:34;;;;;;;5.55;5.10;;;36.80;21.70;;;;;;5098821;28;20190;-84
2022/06/15 12:53:22;;;;;;;5.32;4.93;;;36.70;21.20;;;;;;5096247;28;20260;-84
2022/06/15 12:56:15;;;;;;;4.70;4.40;;;36.90;19.90;;;;;;5099347;28;20642;-83
2022/06/15 12:59:06;;;;;;;6.22;4.90;;;36.90;18.60;;;;;;5093710;28;20262;-84
2022/06/15 13:01:39;;;;;;;7.13;5.20;;;37.30;20.10;;;;;;5097332;28;20190;-83
2022/06/15 13:04:32;;;;;;;5.82;5.43;;;37.20;19.70;;;;;;5094973;28;20197;-83
2022/06/15 13:07:32;;;;;;;6.25;5.50;;;37.50;20.40;;;;;;5075675;28;20185;-83
2022/06/15 13:10:07;;;;;;;5.22;4.93;;;37.80;19.00;;;;;;5079936;28;20202;-84
2022/06/15 13:12:35;;;;;;;5.20;4.80;;;37.80;18.40;;;;;;5095978;28;20225;-82
2022/06/15 13:15:02;;;;;;;5.28;4.88;;;37.80;18.10;;;;;;5098541;28;20202;-83
2022/06/15 13:18:08;;;;;;;5.78;5.38;;;37.80;19.40;;;;;;5101010;28;20186;-83
2022/06/15 13:20:58;;;;;;;5.43;4.97;;;38.30;19.40;;;;;;5100981;28;20250;-83
2022/06/15 13:23:32;;;;;;;5.53;5.07;;;37.70;19.40;;;;;;5101572;28;20195;-83
2022/06/15 13:26:12;;;;;;;5.25;4.75;;;37.10;19.30;;;;;;5095470;28;20680;-83
2022/06/15 13:29:01;;;;;;;5.63;5.22;;;37.60;19.10;;;;;;5099158;28;20272;-83